Accueil
METAR-TAF:

METAR-TAF

Aéroports :

Aéroport international Toussaint-Louverture

Port-au-Prince, Haïti

latitude: 18-34N, longitude: 072-18W, altitude: 31 m

Observation

Le bulletin a été fait il y a 26 minutes, à 09:59 UTC
Vent 8 kt de sud-est
Température 23°C
Humidité 73%
Pression 1017 hPa

METAR: MTPP 280959Z AUTO 13008KT //// ////// 23/18 Q1016 A3002 NOSIG

Heure: 05:25 (10:25 UTC)


TAF: absent

Observations et prévisions météorologiques de plus de 4000 aéroports (messages METAR et TAF).

Les stations disponibles sont représentées par des disques jaunes et rouges sur la carte.

Passer la souris dessus pour voir le nom de la station.

Cliquer dessus pour voir les observations et prévisions météorologiques.

Pour changer de carte: cliquez sur les boutons verts avec une croix noire pour zoomer, sur le bouton vert avec un tiret pour effectuer un zoom arrière, ou sur les flèches vertes pour les cartes adjacentes.


METAR-TAF: